sensor_id;sensor_type;location;lat;lon;timestamp;temperature;humidity
19206;DHT22;59358;52.134;5.596;2023-03-25T00:02:14;10.20;99.90
19206;DHT22;59358;52.134;5.596;2023-03-25T00:04:42;10.10;99.90
19206;DHT22;59358;52.134;5.596;2023-03-25T00:07:09;10.10;99.90
19206;DHT22;59358;52.134;5.596;2023-03-25T00:09:36;10.10;99.90
19206;DHT22;59358;52.134;5.596;2023-03-25T00:12:03;10.10;99.90
19206;DHT22;59358;52.134;5.596;2023-03-25T00:14:30;10.10;99.90
19206;DHT22;59358;52.134;5.596;2023-03-25T00:16:58;10.10;99.90
19206;DHT22;59358;52.134;5.596;2023-03-25T00:19:26;10.00;99.90
19206;DHT22;59358;52.134;5.596;2023-03-25T00:21:54;10.00;99.90
19206;DHT22;59358;52.134;5.596;2023-03-25T00:24:21;10.00;99.90
19206;DHT22;59358;52.134;5.596;2023-03-25T00:26:47;10.00;99.90
19206;DHT22;59358;52.134;5.596;2023-03-25T00:29:15;10.00;99.90
19206;DHT22;59358;52.134;5.596;2023-03-25T00:31:42;10.00;99.90
19206;DHT22;59358;52.134;5.596;2023-03-25T00:34:09;10.00;99.90
19206;DHT22;59358;52.134;5.596;2023-03-25T00:36:39;10.00;99.90
19206;DHT22;59358;52.134;5.596;2023-03-25T00:39:07;10.00;99.90
19206;DHT22;59358;52.134;5.596;2023-03-25T00:41:34;10.00;99.90
19206;DHT22;59358;52.134;5.596;2023-03-25T00:44:02;10.10;99.90
19206;DHT22;59358;52.134;5.596;2023-03-25T00:46:31;10.00;99.90
19206;DHT22;59358;52.134;5.596;2023-03-25T00:48:59;10.00;99.90
19206;DHT22;59358;52.134;5.596;2023-03-25T00:51:27;10.00;99.90
19206;DHT22;59358;52.134;5.596;2023-03-25T00:53:57;10.00;99.90
19206;DHT22;59358;52.134;5.596;2023-03-25T00:56:28;10.00;99.90
19206;DHT22;59358;52.134;5.596;2023-03-25T00:58:55;10.00;99.90
19206;DHT22;59358;52.134;5.596;2023-03-25T01:01:24;10.00;99.90
19206;DHT22;59358;52.134;5.596;2023-03-25T01:03:52;10.00;99.90
19206;DHT22;59358;52.134;5.596;2023-03-25T01:06:24;10.00;99.90
19206;DHT22;59358;52.134;5.596;2023-03-25T01:08:53;10.00;99.90
19206;DHT22;59358;52.134;5.596;2023-03-25T01:11:22;10.00;99.90
19206;DHT22;59358;52.134;5.596;2023-03-25T01:13:50;10.00;99.90
19206;DHT22;59358;52.134;5.596;2023-03-25T01:16:17;10.00;99.90
19206;DHT22;59358;52.134;5.596;2023-03-25T01:18:44;10.00;99.90
19206;DHT22;59358;52.134;5.596;2023-03-25T01:21:10;10.00;99.90
19206;DHT22;59358;52.134;5.596;2023-03-25T01:23:37;10.00;99.90
19206;DHT22;59358;52.134;5.596;2023-03-25T01:26:04;10.00;99.90
19206;DHT22;59358;52.134;5.596;2023-03-25T01:28:31;10.00;99.90
19206;DHT22;59358;52.134;5.596;2023-03-25T01:31:04;10.00;99.90
19206;DHT22;59358;52.134;5.596;2023-03-25T01:33:31;10.00;99.90
19206;DHT22;59358;52.134;5.596;2023-03-25T01:35:59;10.00;99.90
19206;DHT22;59358;52.134;5.596;2023-03-25T01:38:26;10.00;99.90
19206;DHT22;59358;52.134;5.596;2023-03-25T01:40:55;10.00;99.90
19206;DHT22;59358;52.134;5.596;2023-03-25T01:43:23;9.90;99.90
19206;DHT22;59358;52.134;5.596;2023-03-25T01:45:50;9.90;99.90
19206;DHT22;59358;52.134;5.596;2023-03-25T01:48:22;9.90;99.90
19206;DHT22;59358;52.134;5.596;2023-03-25T01:50:53;9.90;99.90
19206;DHT22;59358;52.134;5.596;2023-03-25T01:53:21;9.80;99.90
19206;DHT22;59358;52.134;5.596;2023-03-25T01:55:48;9.80;99.90
19206;DHT22;59358;52.134;5.596;2023-03-25T01:58:18;9.70;99.90
19206;DHT22;59358;52.134;5.596;2023-03-25T02:00:48;9.60;99.90
19206;DHT22;59358;52.134;5.596;2023-03-25T02:03:19;9.50;99.90
19206;DHT22;59358;52.134;5.596;2023-03-25T02:05:51;9.50;99.90
19206;DHT22;59358;52.134;5.596;2023-03-25T02:08:19;9.40;99.90
19206;DHT22;59358;52.134;5.596;2023-03-25T02:10:47;9.40;99.90
19206;DHT22;59358;52.134;5.596;2023-03-25T02:13:14;9.40;99.90
19206;DHT22;59358;52.134;5.596;2023-03-25T02:16:05;9.30;99.90
19206;DHT22;59358;52.134;5.596;2023-03-25T02:18:42;9.40;99.90
19206;DHT22;59358;52.134;5.596;2023-03-25T02:24:48;9.40;99.90
19206;DHT22;59358;52.134;5.596;2023-03-25T02:27:26;9.40;99.90
19206;DHT22;59358;52.134;5.596;2023-03-25T02:30:28;9.40;99.90
19206;DHT22;59358;52.134;5.596;2023-03-25T02:33:29;9.30;99.90
19206;DHT22;59358;52.134;5.596;2023-03-25T02:36:24;9.20;99.90
19206;DHT22;59358;52.134;5.596;2023-03-25T02:39:04;9.20;99.90
19206;DHT22;59358;52.134;5.596;2023-03-25T02:41:40;9.00;99.90
19206;DHT22;59358;52.134;5.596;2023-03-25T02:44:11;8.90;99.90
19206;DHT22;59358;52.134;5.596;2023-03-25T02:46:43;8.90;99.90
19206;DHT22;59358;52.134;5.596;2023-03-25T02:49:14;8.90;99.90
19206;DHT22;59358;52.134;5.596;2023-03-25T02:51:47;8.80;99.90
19206;DHT22;59358;52.134;5.596;2023-03-25T02:54:18;8.90;99.90
19206;DHT22;59358;52.134;5.596;2023-03-25T02:56:47;8.90;99.90
19206;DHT22;59358;52.134;5.596;2023-03-25T02:59:17;9.00;99.90
19206;DHT22;59358;52.134;5.596;2023-03-25T03:01:46;9.10;99.90
19206;DHT22;59358;52.134;5.596;2023-03-25T03:04:14;9.00;99.90
19206;DHT22;59358;52.134;5.596;2023-03-25T03:06:42;9.00;99.90
19206;DHT22;59358;52.134;5.596;2023-03-25T03:09:21;9.00;99.90
19206;DHT22;59358;52.134;5.596;2023-03-25T03:11:56;9.00;99.90
19206;DHT22;59358;52.134;5.596;2023-03-25T03:14:42;9.00;99.90
19206;DHT22;59358;52.134;5.596;2023-03-25T03:17:18;9.00;99.90
19206;DHT22;59358;52.134;5.596;2023-03-25T03:19:50;8.90;99.90
19206;DHT22;59358;52.134;5.596;2023-03-25T03:22:31;8.90;99.90
19206;DHT22;59358;52.134;5.596;2023-03-25T03:25:08;8.90;99.90
19206;DHT22;59358;52.134;5.596;2023-03-25T03:27:41;9.00;99.90
19206;DHT22;59358;52.134;5.596;2023-03-25T03:30:12;9.00;99.90
19206;DHT22;59358;52.134;5.596;2023-03-25T03:32:45;9.00;99.90
19206;DHT22;59358;52.134;5.596;2023-03-25T03:35:17;8.90;99.90
19206;DHT22;59358;52.134;5.596;2023-03-25T03:37:50;9.00;99.90
19206;DHT22;59358;52.134;5.596;2023-03-25T03:40:21;8.90;99.90
19206;DHT22;59358;52.134;5.596;2023-03-25T03:42:51;8.90;99.90
19206;DHT22;59358;52.134;5.596;2023-03-25T03:45:22;8.90;99.90
19206;DHT22;59358;52.134;5.596;2023-03-25T03:47:53;8.90;99.90
19206;DHT22;59358;52.134;5.596;2023-03-25T03:50:25;8.90;99.90
19206;DHT22;59358;52.134;5.596;2023-03-25T03:53:01;8.90;99.90
19206;DHT22;59358;52.134;5.596;2023-03-25T03:55:32;8.90;99.90
19206;DHT22;59358;52.134;5.596;2023-03-25T03:58:07;8.90;99.90
19206;DHT22;59358;52.134;5.596;2023-03-25T04:00:38;8.90;99.90
19206;DHT22;59358;52.134;5.596;2023-03-25T04:03:11;8.90;99.90
19206;DHT22;59358;52.134;5.596;2023-03-25T04:05:42;8.90;99.90
19206;DHT22;59358;52.134;5.596;2023-03-25T04:08:17;9.00;99.90
19206;DHT22;59358;52.134;5.596;2023-03-25T04:10:53;9.00;99.90
19206;DHT22;59358;52.134;5.596;2023-03-25T04:13:26;9.00;99.90
19206;DHT22;59358;52.134;5.596;2023-03-25T04:15:56;9.00;99.90
19206;DHT22;59358;52.134;5.596;2023-03-25T04:18:24;9.00;99.90
19206;DHT22;59358;52.134;5.596;2023-03-25T04:20:53;9.10;99.90
19206;DHT22;59358;52.134;5.596;2023-03-25T04:23:20;9.10;99.90
19206;DHT22;59358;52.134;5.596;2023-03-25T04:25:48;9.10;99.90
19206;DHT22;59358;52.134;5.596;2023-03-25T04:28:18;9.10;99.90
19206;DHT22;59358;52.134;5.596;2023-03-25T04:30:45;9.10;99.90
19206;DHT22;59358;52.134;5.596;2023-03-25T04:33:13;9.10;99.90
19206;DHT22;59358;52.134;5.596;2023-03-25T04:35:40;9.00;99.90
19206;DHT22;59358;52.134;5.596;2023-03-25T04:38:07;9.00;99.90
19206;DHT22;59358;52.134;5.596;2023-03-25T04:40:34;9.00;99.90
19206;DHT22;59358;52.134;5.596;2023-03-25T04:43:06;9.00;99.90
19206;DHT22;59358;52.134;5.596;2023-03-25T04:45:33;9.00;99.90
19206;DHT22;59358;52.134;5.596;2023-03-25T04:48:01;8.90;99.90
19206;DHT22;59358;52.134;5.596;2023-03-25T04:50:31;8.90;99.90
19206;DHT22;59358;52.134;5.596;2023-03-25T04:52:58;8.80;99.90
19206;DHT22;59358;52.134;5.596;2023-03-25T04:55:27;8.80;99.90
19206;DHT22;59358;52.134;5.596;2023-03-25T04:57:54;8.80;99.90
19206;DHT22;59358;52.134;5.596;2023-03-25T05:00:24;8.80;99.90
19206;DHT22;59358;52.134;5.596;2023-03-25T05:02:52;8.80;99.90
19206;DHT22;59358;52.134;5.596;2023-03-25T05:05:21;8.80;99.90
19206;DHT22;59358;52.134;5.596;2023-03-25T05:07:50;8.80;99.90
19206;DHT22;59358;52.134;5.596;2023-03-25T05:10:19;8.80;99.90
19206;DHT22;59358;52.134;5.596;2023-03-25T05:12:46;8.80;99.90
19206;DHT22;59358;52.134;5.596;2023-03-25T05:15:13;8.80;99.90
19206;DHT22;59358;52.134;5.596;2023-03-25T05:17:43;8.80;99.90
19206;DHT22;59358;52.134;5.596;2023-03-25T05:20:11;8.90;99.90
19206;DHT22;59358;52.134;5.596;2023-03-25T05:22:39;8.90;99.90
19206;DHT22;59358;52.134;5.596;2023-03-25T05:25:08;8.90;99.90
19206;DHT22;59358;52.134;5.596;2023-03-25T05:27:36;8.90;99.90
19206;DHT22;59358;52.134;5.596;2023-03-25T05:30:04;8.90;99.90
19206;DHT22;59358;52.134;5.596;2023-03-25T05:32:31;8.80;99.90
19206;DHT22;59358;52.134;5.596;2023-03-25T05:35:00;8.70;99.90
19206;DHT22;59358;52.134;5.596;2023-03-25T05:37:27;8.70;99.90
19206;DHT22;59358;52.134;5.596;2023-03-25T05:39:54;8.60;99.90
19206;DHT22;59358;52.134;5.596;2023-03-25T05:42:21;8.60;99.90
19206;DHT22;59358;52.134;5.596;2023-03-25T05:44:49;8.60;99.90
19206;DHT22;59358;52.134;5.596;2023-03-25T05:47:17;8.60;99.90
19206;DHT22;59358;52.134;5.596;2023-03-25T05:49:44;8.60;99.90
19206;DHT22;59358;52.134;5.596;2023-03-25T05:52:13;8.60;99.90
19206;DHT22;59358;52.134;5.596;2023-03-25T05:54:41;8.60;99.90
19206;DHT22;59358;52.134;5.596;2023-03-25T05:57:08;8.60;99.90
19206;DHT22;59358;52.134;5.596;2023-03-25T05:59:35;8.50;99.90
19206;DHT22;59358;52.134;5.596;2023-03-25T06:02:04;8.60;99.90
19206;DHT22;59358;52.134;5.596;2023-03-25T06:04:32;8.60;99.90
19206;DHT22;59358;52.134;5.596;2023-03-25T06:07:04;8.60;99.90
19206;DHT22;59358;52.134;5.596;2023-03-25T06:09:35;8.70;99.90
19206;DHT22;59358;52.134;5.596;2023-03-25T06:12:02;8.70;99.90
19206;DHT22;59358;52.134;5.596;2023-03-25T06:14:29;8.70;99.90
19206;DHT22;59358;52.134;5.596;2023-03-25T06:16:56;8.60;99.90
19206;DHT22;59358;52.134;5.596;2023-03-25T06:19:24;8.70;99.90
19206;DHT22;59358;52.134;5.596;2023-03-25T06:21:51;8.70;99.90
19206;DHT22;59358;52.134;5.596;2023-03-25T06:24:19;8.70;99.90
19206;DHT22;59358;52.134;5.596;2023-03-25T06:26:47;8.80;99.90
19206;DHT22;59358;52.134;5.596;2023-03-25T06:29:15;8.80;99.90
19206;DHT22;59358;52.134;5.596;2023-03-25T06:31:42;8.90;99.90
19206;DHT22;59358;52.134;5.596;2023-03-25T06:34:09;8.90;99.90
19206;DHT22;59358;52.134;5.596;2023-03-25T06:36:36;8.90;99.90
19206;DHT22;59358;52.134;5.596;2023-03-25T06:39:02;9.00;99.90
19206;DHT22;59358;52.134;5.596;2023-03-25T06:41:30;9.00;99.90
19206;DHT22;59358;52.134;5.596;2023-03-25T06:44:01;9.20;99.90
19206;DHT22;59358;52.134;5.596;2023-03-25T06:46:29;9.30;99.90
19206;DHT22;59358;52.134;5.596;2023-03-25T06:48:56;9.30;99.90
19206;DHT22;59358;52.134;5.596;2023-03-25T06:51:23;9.40;99.90
19206;DHT22;59358;52.134;5.596;2023-03-25T06:53:50;9.30;99.90
19206;DHT22;59358;52.134;5.596;2023-03-25T06:56:17;9.40;99.90
19206;DHT22;59358;52.134;5.596;2023-03-25T06:58:44;9.30;99.90
19206;DHT22;59358;52.134;5.596;2023-03-25T07:01:12;9.10;99.90
19206;DHT22;59358;52.134;5.596;2023-03-25T07:03:39;9.10;99.90
19206;DHT22;59358;52.134;5.596;2023-03-25T07:06:07;9.00;99.90
19206;DHT22;59358;52.134;5.596;2023-03-25T07:08:34;8.90;99.90
19206;DHT22;59358;52.134;5.596;2023-03-25T07:11:01;8.80;99.90
19206;DHT22;59358;52.134;5.596;2023-03-25T07:13:28;8.80;99.90
19206;DHT22;59358;52.134;5.596;2023-03-25T07:15:55;8.80;99.90
19206;DHT22;59358;52.134;5.596;2023-03-25T07:18:24;8.80;99.90
19206;DHT22;59358;52.134;5.596;2023-03-25T07:20:51;8.70;99.90
19206;DHT22;59358;52.134;5.596;2023-03-25T07:23:18;8.70;99.90
19206;DHT22;59358;52.134;5.596;2023-03-25T07:25:45;8.60;99.90
19206;DHT22;59358;52.134;5.596;2023-03-25T07:28:13;8.60;99.90
19206;DHT22;59358;52.134;5.596;2023-03-25T07:30:40;8.50;99.90
19206;DHT22;59358;52.134;5.596;2023-03-25T07:33:07;8.60;99.90
19206;DHT22;59358;52.134;5.596;2023-03-25T07:35:35;8.60;99.90
19206;DHT22;59358;52.134;5.596;2023-03-25T07:38:02;8.60;99.90
19206;DHT22;59358;52.134;5.596;2023-03-25T07:40:29;8.60;99.90
19206;DHT22;59358;52.134;5.596;2023-03-25T07:42:56;8.60;99.90
19206;DHT22;59358;52.134;5.596;2023-03-25T07:45:23;8.60;99.90
19206;DHT22;59358;52.134;5.596;2023-03-25T07:47:50;8.70;99.90
19206;DHT22;59358;52.134;5.596;2023-03-25T07:50:22;8.80;99.90
19206;DHT22;59358;52.134;5.596;2023-03-25T07:52:50;8.80;99.90
19206;DHT22;59358;52.134;5.596;2023-03-25T07:55:17;8.80;99.90
19206;DHT22;59358;52.134;5.596;2023-03-25T07:57:44;8.90;99.90
19206;DHT22;59358;52.134;5.596;2023-03-25T08:00:12;8.90;99.90
19206;DHT22;59358;52.134;5.596;2023-03-25T08:02:39;8.90;99.90
19206;DHT22;59358;52.134;5.596;2023-03-25T08:05:07;9.00;99.90
19206;DHT22;59358;52.134;5.596;2023-03-25T08:07:34;9.00;99.90
19206;DHT22;59358;52.134;5.596;2023-03-25T08:10:03;8.90;99.90
19206;DHT22;59358;52.134;5.596;2023-03-25T08:12:35;9.00;99.90
19206;DHT22;59358;52.134;5.596;2023-03-25T08:15:03;9.20;99.90
19206;DHT22;59358;52.134;5.596;2023-03-25T08:17:30;9.20;99.90
19206;DHT22;59358;52.134;5.596;2023-03-25T08:19:58;9.30;99.90
19206;DHT22;59358;52.134;5.596;2023-03-25T08:22:33;9.20;99.90
19206;DHT22;59358;52.134;5.596;2023-03-25T08:25:07;9.20;99.90
19206;DHT22;59358;52.134;5.596;2023-03-25T08:27:37;9.10;99.90
19206;DHT22;59358;52.134;5.596;2023-03-25T08:30:06;9.00;99.90
19206;DHT22;59358;52.134;5.596;2023-03-25T08:32:37;9.00;99.90
19206;DHT22;59358;52.134;5.596;2023-03-25T08:35:06;9.10;99.90
19206;DHT22;59358;52.134;5.596;2023-03-25T08:37:33;9.10;99.90
19206;DHT22;59358;52.134;5.596;2023-03-25T08:40:04;9.10;99.90
19206;DHT22;59358;52.134;5.596;2023-03-25T08:42:33;9.00;99.90
19206;DHT22;59358;52.134;5.596;2023-03-25T08:45:00;9.00;99.90
19206;DHT22;59358;52.134;5.596;2023-03-25T08:47:28;9.20;99.90
19206;DHT22;59358;52.134;5.596;2023-03-25T08:49:55;9.40;99.90
19206;DHT22;59358;52.134;5.596;2023-03-25T08:52:22;9.40;99.90
19206;DHT22;59358;52.134;5.596;2023-03-25T08:54:50;9.40;99.90
19206;DHT22;59358;52.134;5.596;2023-03-25T08:57:18;9.40;99.90
19206;DHT22;59358;52.134;5.596;2023-03-25T08:59:45;9.30;99.90
19206;DHT22;59358;52.134;5.596;2023-03-25T09:02:12;9.40;99.90
19206;DHT22;59358;52.134;5.596;2023-03-25T09:04:39;9.40;99.90
19206;DHT22;59358;52.134;5.596;2023-03-25T09:07:07;9.50;99.90
19206;DHT22;59358;52.134;5.596;2023-03-25T09:09:35;9.60;99.90
19206;DHT22;59358;52.134;5.596;2023-03-25T09:12:03;9.60;99.90
19206;DHT22;59358;52.134;5.596;2023-03-25T09:14:34;9.90;99.90
19206;DHT22;59358;52.134;5.596;2023-03-25T09:17:02;10.20;99.90
19206;DHT22;59358;52.134;5.596;2023-03-25T09:19:30;10.30;99.90
19206;DHT22;59358;52.134;5.596;2023-03-25T09:21:59;10.60;99.90
19206;DHT22;59358;52.134;5.596;2023-03-25T09:24:28;10.70;99.90
19206;DHT22;59358;52.134;5.596;2023-03-25T09:26:58;10.60;99.90
19206;DHT22;59358;52.134;5.596;2023-03-25T09:29:26;10.60;99.90
19206;DHT22;59358;52.134;5.596;2023-03-25T09:31:55;10.60;99.90
19206;DHT22;59358;52.134;5.596;2023-03-25T09:34:24;10.50;99.90
19206;DHT22;59358;52.134;5.596;2023-03-25T09:36:52;10.50;99.90
19206;DHT22;59358;52.134;5.596;2023-03-25T09:39:19;10.50;99.90
19206;DHT22;59358;52.134;5.596;2023-03-25T09:41:59;10.40;99.90
19206;DHT22;59358;52.134;5.596;2023-03-25T09:44:31;10.50;99.90
19206;DHT22;59358;52.134;5.596;2023-03-25T09:47:01;10.70;99.90
19206;DHT22;59358;52.134;5.596;2023-03-25T09:49:36;10.70;99.90
19206;DHT22;59358;52.134;5.596;2023-03-25T09:52:05;11.00;99.90
19206;DHT22;59358;52.134;5.596;2023-03-25T09:54:40;11.30;99.90
19206;DHT22;59358;52.134;5.596;2023-03-25T09:57:17;11.30;99.90
19206;DHT22;59358;52.134;5.596;2023-03-25T09:59:46;11.20;99.90
19206;DHT22;59358;52.134;5.596;2023-03-25T10:02:30;10.80;99.90
19206;DHT22;59358;52.134;5.596;2023-03-25T10:05:18;10.70;99.90
19206;DHT22;59358;52.134;5.596;2023-03-25T10:07:56;10.70;99.90
19206;DHT22;59358;52.134;5.596;2023-03-25T10:10:32;10.70;99.90
19206;DHT22;59358;52.134;5.596;2023-03-25T10:13:06;10.90;99.90
19206;DHT22;59358;52.134;5.596;2023-03-25T10:15:39;10.80;99.90
19206;DHT22;59358;52.134;5.596;2023-03-25T10:18:28;10.70;99.90
19206;DHT22;59358;52.134;5.596;2023-03-25T10:21:02;10.50;99.90
19206;DHT22;59358;52.134;5.596;2023-03-25T10:23:37;10.60;99.90
19206;DHT22;59358;52.134;5.596;2023-03-25T10:26:10;10.60;99.90
19206;DHT22;59358;52.134;5.596;2023-03-25T10:28:43;10.60;99.90
19206;DHT22;59358;52.134;5.596;2023-03-25T10:31:30;10.60;99.90
19206;DHT22;59358;52.134;5.596;2023-03-25T10:34:04;10.70;99.90
19206;DHT22;59358;52.134;5.596;2023-03-25T10:36:35;10.80;99.90
19206;DHT22;59358;52.134;5.596;2023-03-25T10:39:12;10.80;99.90
19206;DHT22;59358;52.134;5.596;2023-03-25T10:41:40;10.80;99.90
19206;DHT22;59358;52.134;5.596;2023-03-25T10:44:08;10.70;99.90
19206;DHT22;59358;52.134;5.596;2023-03-25T10:46:39;10.70;99.90
19206;DHT22;59358;52.134;5.596;2023-03-25T10:49:15;10.70;99.90
19206;DHT22;59358;52.134;5.596;2023-03-25T10:51:43;10.70;99.90
19206;DHT22;59358;52.134;5.596;2023-03-25T10:54:11;10.80;99.90
19206;DHT22;59358;52.134;5.596;2023-03-25T10:56:43;11.10;99.90
19206;DHT22;59358;52.134;5.596;2023-03-25T10:59:15;11.10;99.90
19206;DHT22;59358;52.134;5.596;2023-03-25T11:01:43;11.10;99.90
19206;DHT22;59358;52.134;5.596;2023-03-25T11:24:39;10.70;99.90
19206;DHT22;59358;52.134;5.596;2023-03-25T11:27:08;10.90;99.90
19206;DHT22;59358;52.134;5.596;2023-03-25T11:29:36;11.00;99.90
19206;DHT22;59358;52.134;5.596;2023-03-25T11:32:06;11.10;99.90
19206;DHT22;59358;52.134;5.596;2023-03-25T11:34:34;11.10;99.90
19206;DHT22;59358;52.134;5.596;2023-03-25T11:37:14;10.90;99.90
19206;DHT22;59358;52.134;5.596;2023-03-25T11:39:48;11.00;99.90
19206;DHT22;59358;52.134;5.596;2023-03-25T11:42:25;11.10;99.90
19206;DHT22;59358;52.134;5.596;2023-03-25T11:44:54;11.30;99.90
19206;DHT22;59358;52.134;5.596;2023-03-25T11:47:25;11.10;99.90
19206;DHT22;59358;52.134;5.596;2023-03-25T11:49:56;10.90;99.90
19206;DHT22;59358;52.134;5.596;2023-03-25T11:52:24;10.80;99.90
19206;DHT22;59358;52.134;5.596;2023-03-25T11:54:54;11.00;99.90
19206;DHT22;59358;52.134;5.596;2023-03-25T11:57:23;11.10;99.90
19206;DHT22;59358;52.134;5.596;2023-03-25T11:59:59;11.20;99.90
19206;DHT22;59358;52.134;5.596;2023-03-25T12:02:29;11.40;99.90
19206;DHT22;59358;52.134;5.596;2023-03-25T12:04:59;11.60;99.90
19206;DHT22;59358;52.134;5.596;2023-03-25T12:07:26;11.60;99.90
19206;DHT22;59358;52.134;5.596;2023-03-25T12:09:56;11.60;99.90
19206;DHT22;59358;52.134;5.596;2023-03-25T12:12:39;11.50;99.90
19206;DHT22;59358;52.134;5.596;2023-03-25T12:15:18;11.60;99.90
19206;DHT22;59358;52.134;5.596;2023-03-25T12:18:01;11.70;99.90
19206;DHT22;59358;52.134;5.596;2023-03-25T12:20:33;11.90;99.90
19206;DHT22;59358;52.134;5.596;2023-03-25T12:23:06;11.90;99.90
19206;DHT22;59358;52.134;5.596;2023-03-25T12:25:48;12.00;99.90
19206;DHT22;59358;52.134;5.596;2023-03-25T12:31:33;12.10;99.90
19206;DHT22;59358;52.134;5.596;2023-03-25T12:34:11;12.10;99.90
19206;DHT22;59358;52.134;5.596;2023-03-25T12:36:50;12.20;99.90
19206;DHT22;59358;52.134;5.596;2023-03-25T12:39:31;12.60;99.90
19206;DHT22;59358;52.134;5.596;2023-03-25T12:42:07;12.60;99.90
19206;DHT22;59358;52.134;5.596;2023-03-25T12:44:48;13.00;99.90
19206;DHT22;59358;52.134;5.596;2023-03-25T12:47:22;13.20;99.90
19206;DHT22;59358;52.134;5.596;2023-03-25T12:50:13;13.10;99.90
19206;DHT22;59358;52.134;5.596;2023-03-25T12:52:53;13.00;99.90
19206;DHT22;59358;52.134;5.596;2023-03-25T12:55:33;12.70;99.90
19206;DHT22;59358;52.134;5.596;2023-03-25T12:58:25;12.50;99.90
19206;DHT22;59358;52.134;5.596;2023-03-25T13:00:58;12.60;99.90
19206;DHT22;59358;52.134;5.596;2023-03-25T13:03:38;12.70;99.90
19206;DHT22;59358;52.134;5.596;2023-03-25T13:06:16;12.60;99.90
19206;DHT22;59358;52.134;5.596;2023-03-25T13:08:48;12.50;99.90
19206;DHT22;59358;52.134;5.596;2023-03-25T13:11:21;12.70;99.90
19206;DHT22;59358;52.134;5.596;2023-03-25T13:13:54;12.90;99.90
19206;DHT22;59358;52.134;5.596;2023-03-25T13:16:25;13.10;99.90
19206;DHT22;59358;52.134;5.596;2023-03-25T13:18:54;13.30;99.90
19206;DHT22;59358;52.134;5.596;2023-03-25T13:21:28;13.50;99.90
19206;DHT22;59358;52.134;5.596;2023-03-25T13:23:58;13.50;99.90
19206;DHT22;59358;52.134;5.596;2023-03-25T13:26:29;13.60;99.90
19206;DHT22;59358;52.134;5.596;2023-03-25T13:28:59;13.70;99.90
19206;DHT22;59358;52.134;5.596;2023-03-25T13:31:32;13.80;99.90
19206;DHT22;59358;52.134;5.596;2023-03-25T13:34:08;13.90;99.90
19206;DHT22;59358;52.134;5.596;2023-03-25T13:36:42;13.60;99.90
19206;DHT22;59358;52.134;5.596;2023-03-25T13:39:14;13.60;99.90
19206;DHT22;59358;52.134;5.596;2023-03-25T13:41:45;13.40;99.90
19206;DHT22;59358;52.134;5.596;2023-03-25T13:44:18;13.40;99.90
19206;DHT22;59358;52.134;5.596;2023-03-25T13:46:48;13.50;99.90
19206;DHT22;59358;52.134;5.596;2023-03-25T13:49:20;13.40;99.90
19206;DHT22;59358;52.134;5.596;2023-03-25T13:51:49;13.70;99.90
19206;DHT22;59358;52.134;5.596;2023-03-25T13:54:19;13.70;99.90
19206;DHT22;59358;52.134;5.596;2023-03-25T14:00:23;13.60;99.90
19206;DHT22;59358;52.134;5.596;2023-03-25T14:03:10;13.60;99.90
19206;DHT22;59358;52.134;5.596;2023-03-25T14:11:54;13.50;99.90
19206;DHT22;59358;52.134;5.596;2023-03-25T14:14:24;13.30;99.90
19206;DHT22;59358;52.134;5.596;2023-03-25T14:16:55;13.10;99.90
19206;DHT22;59358;52.134;5.596;2023-03-25T14:19:30;12.70;99.90
19206;DHT22;59358;52.134;5.596;2023-03-25T14:21:58;12.00;99.90
19206;DHT22;59358;52.134;5.596;2023-03-25T14:24:28;11.30;99.90
19206;DHT22;59358;52.134;5.596;2023-03-25T14:27:00;10.90;99.90
19206;DHT22;59358;52.134;5.596;2023-03-25T14:29:36;10.40;99.90
19206;DHT22;59358;52.134;5.596;2023-03-25T14:32:27;10.20;99.90
19206;DHT22;59358;52.134;5.596;2023-03-25T14:41:54;10.80;99.90
19206;DHT22;59358;52.134;5.596;2023-03-25T14:44:22;11.20;99.90
19206;DHT22;59358;52.134;5.596;2023-03-25T14:46:59;11.60;99.90
19206;DHT22;59358;52.134;5.596;2023-03-25T14:49:46;12.00;99.90
19206;DHT22;59358;52.134;5.596;2023-03-25T14:52:24;12.30;99.90
19206;DHT22;59358;52.134;5.596;2023-03-25T14:54:54;12.60;99.90
19206;DHT22;59358;52.134;5.596;2023-03-25T14:57:24;12.80;99.90
19206;DHT22;59358;52.134;5.596;2023-03-25T14:59:53;13.30;99.90
19206;DHT22;59358;52.134;5.596;2023-03-25T15:02:25;13.20;99.90
19206;DHT22;59358;52.134;5.596;2023-03-25T15:04:55;12.90;99.90
19206;DHT22;59358;52.134;5.596;2023-03-25T15:07:40;12.90;99.90
19206;DHT22;59358;52.134;5.596;2023-03-25T15:10:21;12.80;99.90
19206;DHT22;59358;52.134;5.596;2023-03-25T15:12:52;12.40;99.90
19206;DHT22;59358;52.134;5.596;2023-03-25T15:15:28;12.10;99.90
19206;DHT22;59358;52.134;5.596;2023-03-25T15:17:55;11.80;99.90
19206;DHT22;59358;52.134;5.596;2023-03-25T15:20:28;11.70;99.90
19206;DHT22;59358;52.134;5.596;2023-03-25T15:23:23;11.60;99.90
19206;DHT22;59358;52.134;5.596;2023-03-25T15:25:55;11.60;99.90
19206;DHT22;59358;52.134;5.596;2023-03-25T15:28:33;11.60;99.90
19206;DHT22;59358;52.134;5.596;2023-03-25T15:31:22;11.60;99.90
19206;DHT22;59358;52.134;5.596;2023-03-25T15:34:01;10.30;99.90
19206;DHT22;59358;52.134;5.596;2023-03-25T15:36:57;8.30;99.90
19206;DHT22;59358;52.134;5.596;2023-03-25T15:39:38;7.80;99.90
19206;DHT22;59358;52.134;5.596;2023-03-25T15:42:41;7.60;99.90
19206;DHT22;59358;52.134;5.596;2023-03-25T15:48:32;7.70;99.90
19206;DHT22;59358;52.134;5.596;2023-03-25T15:51:15;7.80;99.90
19206;DHT22;59358;52.134;5.596;2023-03-25T15:53:51;7.90;99.90
19206;DHT22;59358;52.134;5.596;2023-03-25T15:56:24;8.00;99.90
19206;DHT22;59358;52.134;5.596;2023-03-25T15:58:58;8.00;99.90
19206;DHT22;59358;52.134;5.596;2023-03-25T16:01:29;7.90;99.90
19206;DHT22;59358;52.134;5.596;2023-03-25T16:03:59;7.80;99.90
19206;DHT22;59358;52.134;5.596;2023-03-25T16:06:28;7.80;99.90
19206;DHT22;59358;52.134;5.596;2023-03-25T16:08:58;8.00;99.90
19206;DHT22;59358;52.134;5.596;2023-03-25T16:11:26;8.40;99.90
19206;DHT22;59358;52.134;5.596;2023-03-25T16:14:03;8.60;99.90
19206;DHT22;59358;52.134;5.596;2023-03-25T16:16:31;8.50;99.90
19206;DHT22;59358;52.134;5.596;2023-03-25T16:19:01;8.40;99.90
19206;DHT22;59358;52.134;5.596;2023-03-25T16:21:29;8.50;99.90
19206;DHT22;59358;52.134;5.596;2023-03-25T16:24:01;8.50;99.90
19206;DHT22;59358;52.134;5.596;2023-03-25T16:26:34;8.40;99.90
19206;DHT22;59358;52.134;5.596;2023-03-25T16:29:17;8.50;99.90
19206;DHT22;59358;52.134;5.596;2023-03-25T16:31:53;8.50;99.90
19206;DHT22;59358;52.134;5.596;2023-03-25T16:34:21;8.60;99.90
19206;DHT22;59358;52.134;5.596;2023-03-25T16:36:50;8.60;99.90
19206;DHT22;59358;52.134;5.596;2023-03-25T16:39:17;8.60;99.90
19206;DHT22;59358;52.134;5.596;2023-03-25T16:41:47;8.60;99.90
19206;DHT22;59358;52.134;5.596;2023-03-25T16:44:18;8.60;99.90
19206;DHT22;59358;52.134;5.596;2023-03-25T16:46:47;8.60;99.90
19206;DHT22;59358;52.134;5.596;2023-03-25T16:49:26;8.50;99.90
19206;DHT22;59358;52.134;5.596;2023-03-25T16:51:55;8.50;99.90
19206;DHT22;59358;52.134;5.596;2023-03-25T16:54:30;8.60;99.90